Time;durP1;ratioP1;P1;durP2;ratioP2;P2;SDS_P1;SDS_P2;PMS_P1;PMS_P2;Temp;Humidity;BMP_temperature;BMP_pressure;BME280_temperature;BME280_humidity;BME280_pressure;Samples;Min_cycle;Max_cycle;Signal;HPM_P1;HPM_P2
2023/09/09 00:00:46;;;;;;;4.38;3.30;;;;;;;;;;5012362;28;20505;-74
2023/09/09 00:03:12;;;;;;;5.25;4.05;;;;;;;;;;4999095;28;20048;-73
2023/09/09 00:05:38;;;;;;;5.47;4.30;;;;;;;;;;5024720;28;20037;-73
2023/09/09 00:08:03;;;;;;;4.95;4.45;;;;;;;;;;5009931;28;20462;-74
2023/09/09 00:10:29;;;;;;;5.38;4.22;;;;;;;;;;5013725;28;20456;-73
2023/09/09 00:12:56;;;;;;;5.78;3.97;;;;;;;;;;5016897;28;20710;-73
2023/09/09 00:15:22;;;;;;;4.53;4.13;;;;;;;;;;5023315;28;20429;-73
2023/09/09 00:17:47;;;;;;;5.53;4.47;;;;;;;;;;5021736;28;20033;-73
2023/09/09 00:20:14;;;;;;;5.13;4.53;;;;;;;;;;5014209;28;20033;-73
2023/09/09 00:22:40;;;;;;;4.63;4.10;;;;;;;;;;5019732;28;20540;-73
2023/09/09 00:25:06;;;;;;;5.95;4.88;;;;;;;;;;5030225;28;20088;-72
2023/09/09 00:27:32;;;;;;;5.00;4.50;;;;;;;;;;5017028;28;20098;-73
2023/09/09 00:29:57;;;;;;;5.43;4.72;;;;;;;;;;5022112;28;20541;-72
2023/09/09 00:32:23;;;;;;;5.50;4.68;;;;;;;;;;5008455;28;20534;-73
2023/09/09 00:34:48;;;;;;;5.85;4.78;;;;;;;;;;5030965;28;20039;-72
2023/09/09 00:37:14;;;;;;;5.57;4.30;;;;;;;;;;5050222;28;20059;-73
2023/09/09 00:39:39;;;;;;;6.00;4.97;;;;;;;;;;5053308;28;20130;-73
2023/09/09 00:42:04;;;;;;;5.65;4.72;;;;;;;;;;5049919;28;20028;-73
2023/09/09 00:44:30;;;;;;;4.78;4.28;;;;;;;;;;5051969;28;20106;-73
2023/09/09 00:46:56;;;;;;;5.50;4.38;;;;;;;;;;5049235;28;20668;-73
2023/09/09 00:49:22;;;;;;;4.80;4.30;;;;;;;;;;5064756;28;20575;-73
2023/09/09 00:51:48;;;;;;;5.35;4.63;;;;;;;;;;5052809;28;20056;-72
2023/09/09 00:54:14;;;;;;;5.28;4.30;;;;;;;;;;5049926;28;20142;-73
2023/09/09 00:56:40;;;;;;;4.53;3.78;;;;;;;;;;5041096;28;20040;-72
2023/09/09 00:59:06;;;;;;;4.10;3.72;;;;;;;;;;5020318;28;20037;-72
2023/09/09 01:01:32;;;;;;;5.15;4.32;;;;;;;;;;5018623;28;20123;-72
2023/09/09 01:03:59;;;;;;;6.13;3.90;;;;;;;;;;5009359;28;20498;-72
2023/09/09 01:06:24;;;;;;;6.18;4.70;;;;;;;;;;5028561;28;20080;-72
2023/09/09 01:08:50;;;;;;;4.40;4.00;;;;;;;;;;5012216;28;20052;-73
2023/09/09 01:11:16;;;;;;;5.40;4.22;;;;;;;;;;5013926;28;20156;-73
2023/09/09 01:13:41;;;;;;;5.50;4.75;;;;;;;;;;5015144;28;20512;-72
2023/09/09 01:16:07;;;;;;;5.78;4.85;;;;;;;;;;5014249;28;20124;-73
2023/09/09 01:18:34;;;;;;;4.80;4.30;;;;;;;;;;5020616;28;20041;-72
2023/09/09 01:21:08;;;;;;;4.28;3.88;;;;;;;;;;5022406;28;20401;-72
2023/09/09 01:23:34;;;;;;;5.68;4.18;;;;;;;;;;5016276;28;20029;-72
2023/09/09 01:25:59;;;;;;;3.78;3.38;;;;;;;;;;5017170;28;20505;-72
2023/09/09 01:28:25;;;;;;;3.55;3.20;;;;;;;;;;5004125;28;20040;-72
2023/09/09 01:30:50;;;;;;;4.50;4.10;;;;;;;;;;5015708;28;20142;-72
2023/09/09 01:33:16;;;;;;;4.97;3.97;;;;;;;;;;5006118;28;20585;-72
2023/09/09 01:35:42;;;;;;;4.50;4.10;;;;;;;;;;5032701;28;20040;-73
2023/09/09 01:38:07;;;;;;;4.50;4.00;;;;;;;;;;5033657;28;20398;-72
2023/09/09 01:40:33;;;;;;;5.15;4.03;;;;;;;;;;5034538;28;20405;-72
2023/09/09 01:42:58;;;;;;;4.68;3.85;;;;;;;;;;5035808;28;20032;-72
2023/09/09 01:45:23;;;;;;;4.97;4.10;;;;;;;;;;5036303;28;20489;-72
2023/09/09 01:47:49;;;;;;;4.50;3.90;;;;;;;;;;5000885;28;20048;-73
2023/09/09 01:50:14;;;;;;;4.95;4.05;;;;;;;;;;5025121;28;20220;-73
2023/09/09 01:52:40;;;;;;;5.32;4.18;;;;;;;;;;5021436;28;20521;-72
2023/09/09 01:55:05;;;;;;;3.97;3.58;;;;;;;;;;5027399;28;20045;-72
2023/09/09 01:57:31;;;;;;;5.05;4.38;;;;;;;;;;5025402;28;20037;-72
2023/09/09 01:59:57;;;;;;;4.97;4.47;;;;;;;;;;5041476;28;20091;-72
2023/09/09 02:02:22;;;;;;;4.45;3.70;;;;;;;;;;5017435;28;20041;-72
2023/09/09 02:04:48;;;;;;;5.45;4.10;;;;;;;;;;5038380;28;20033;-72
2023/09/09 02:07:13;;;;;;;5.03;3.45;;;;;;;;;;5025193;28;20044;-72
2023/09/09 02:09:39;;;;;;;3.42;3.13;;;;;;;;;;5023795;28;20052;-71
2023/09/09 02:12:05;;;;;;;3.90;3.55;;;;;;;;;;5040083;28;20043;-73
2023/09/09 02:14:31;;;;;;;3.53;3.15;;;;;;;;;;5023514;28;20065;-73
2023/09/09 02:16:56;;;;;;;4.38;3.20;;;;;;;;;;5042947;28;20050;-72
2023/09/09 02:19:22;;;;;;;3.38;3.08;;;;;;;;;;5066455;28;20511;-72
2023/09/09 02:21:47;;;;;;;4.40;3.22;;;;;;;;;;5029919;28;20589;-72
2023/09/09 02:24:13;;;;;;;4.07;3.30;;;;;;;;;;5072922;28;20032;-72
2023/09/09 02:26:38;;;;;;;3.83;3.42;;;;;;;;;;5072094;28;20036;-72
2023/09/09 02:29:03;;;;;;;3.58;3.28;;;;;;;;;;5061942;28;20032;-72
2023/09/09 02:31:29;;;;;;;3.95;3.50;;;;;;;;;;5049636;28;20471;-72
2023/09/09 02:33:54;;;;;;;5.00;3.83;;;;;;;;;;5047747;28;20033;-71
2023/09/09 02:36:20;;;;;;;4.32;3.67;;;;;;;;;;5071783;28;20492;-72
2023/09/09 02:38:45;;;;;;;4.55;3.88;;;;;;;;;;5069540;28;20043;-71
2023/09/09 02:41:11;;;;;;;4.80;4.20;;;;;;;;;;5063822;28;20036;-71
2023/09/09 02:43:36;;;;;;;5.30;4.03;;;;;;;;;;5050751;28;20040;-71
2023/09/09 02:46:03;;;;;;;5.03;4.45;;;;;;;;;;5053364;27;20140;-71
2023/09/09 02:48:28;;;;;;;4.05;3.58;;;;;;;;;;5031057;28;20405;-71
2023/09/09 02:50:54;;;;;;;5.43;4.07;;;;;;;;;;5021649;28;20025;-72
2023/09/09 02:53:19;;;;;;;4.63;3.90;;;;;;;;;;5020155;28;20042;-72
2023/09/09 02:55:45;;;;;;;5.85;4.00;;;;;;;;;;5026287;28;20047;-71
2023/09/09 02:58:12;;;;;;;5.65;4.00;;;;;;;;;;5018039;28;20423;-72
2023/09/09 03:00:38;;;;;;;4.05;3.42;;;;;;;;;;5018686;28;20041;-72
2023/09/09 03:03:04;;;;;;;4.03;3.63;;;;;;;;;;5021194;28;20056;-72
2023/09/09 03:05:29;;;;;;;3.50;3.15;;;;;;;;;;5025431;28;20052;-71
2023/09/09 03:07:57;;;;;;;4.82;3.60;;;;;;;;;;5033175;28;20458;-72
2023/09/09 03:10:23;;;;;;;3.55;3.25;;;;;;;;;;5020695;28;20529;-72
2023/09/09 03:12:48;;;;;;;4.05;3.50;;;;;;;;;;5020162;28;20069;-72
2023/09/09 03:15:14;;;;;;;3.60;3.30;;;;;;;;;;5030432;28;20456;-72
2023/09/09 03:17:39;;;;;;;3.33;3.00;;;;;;;;;;5018439;28;20037;-73
2023/09/09 03:20:07;;;;;;;4.03;3.33;;;;;;;;;;5020274;28;20099;-73
2023/09/09 03:22:32;;;;;;;3.95;3.47;;;;;;;;;;5031759;28;20045;-72
2023/09/09 03:24:58;;;;;;;4.57;3.70;;;;;;;;;;5025252;28;20473;-72
2023/09/09 03:27:23;;;;;;;3.60;3.30;;;;;;;;;;5012892;28;20125;-72
2023/09/09 03:29:49;;;;;;;3.80;3.45;;;;;;;;;;5016761;28;20400;-72
2023/09/09 03:32:15;;;;;;;5.22;3.50;;;;;;;;;;5020529;28;20064;-71
2023/09/09 03:34:40;;;;;;;4.43;3.63;;;;;;;;;;5025005;28;20955;-71
2023/09/09 03:37:06;;;;;;;4.35;3.75;;;;;;;;;;5040734;28;20121;-72
2023/09/09 03:39:32;;;;;;;4.30;3.50;;;;;;;;;;5033877;28;20045;-72
2023/09/09 03:41:57;;;;;;;3.92;3.33;;;;;;;;;;5006747;28;20113;-71
2023/09/09 03:44:22;;;;;;;5.00;4.50;;;;;;;;;;5039683;28;20067;-72
2023/09/09 03:46:48;;;;;;;3.80;3.05;;;;;;;;;;5026934;28;20049;-72
2023/09/09 03:49:13;;;;;;;3.70;3.40;;;;;;;;;;5021323;28;20033;-72
2023/09/09 03:51:38;;;;;;;4.40;3.47;;;;;;;;;;5015780;28;20395;-72
2023/09/09 03:54:05;;;;;;;5.30;3.67;;;;;;;;;;5021214;28;20510;-72
2023/09/09 03:56:30;;;;;;;3.75;3.15;;;;;;;;;;5009339;28;20044;-72
2023/09/09 03:58:55;;;;;;;3.97;3.25;;;;;;;;;;5019396;28;20108;-72
2023/09/09 04:01:21;;;;;;;3.05;2.78;;;;;;;;;;5014739;28;20045;-72
2023/09/09 04:03:46;;;;;;;3.13;2.75;;;;;;;;;;5024554;28;20224;-72
2023/09/09 04:06:12;;;;;;;3.97;3.58;;;;;;;;;;5021092;28;20038;-72
2023/09/09 04:08:39;;;;;;;4.28;3.40;;;;;;;;;;5021338;28;20507;-72
2023/09/09 04:11:04;;;;;;;5.72;3.67;;;;;;;;;;5034274;28;20116;-72
2023/09/09 04:13:30;;;;;;;4.32;3.92;;;;;;;;;;5041988;28;20154;-72
2023/09/09 04:15:57;;;;;;;5.65;4.18;;;;;;;;;;5023333;28;20041;-72
2023/09/09 04:18:23;;;;;;;4.10;3.70;;;;;;;;;;5011754;28;20029;-72
2023/09/09 04:20:49;;;;;;;6.10;3.50;;;;;;;;;;5008741;28;20040;-72
2023/09/09 04:23:16;;;;;;;3.45;3.08;;;;;;;;;;5004554;28;20085;-72
2023/09/09 04:25:46;;;;;;;3.22;2.92;;;;;;;;;;4998517;28;20533;-73
2023/09/09 04:28:12;;;;;;;4.45;3.80;;;;;;;;;;5018492;28;20041;-72
2023/09/09 04:30:39;;;;;;;4.65;4.20;;;;;;;;;;5017658;28;20037;-72
2023/09/09 04:33:11;;;;;;;4.30;3.75;;;;;;;;;;5014948;28;20509;-72
2023/09/09 04:35:37;;;;;;;4.25;3.80;;;;;;;;;;5018638;28;20045;-72
2023/09/09 04:38:03;;;;;;;5.60;4.00;;;;;;;;;;5024698;28;20049;-72
2023/09/09 04:40:28;;;;;;;3.88;3.47;;;;;;;;;;5053392;28;20040;-72
2023/09/09 04:42:53;;;;;;;3.88;3.33;;;;;;;;;;5046874;28;20040;-72
2023/09/09 04:45:19;;;;;;;4.53;4.10;;;;;;;;;;5027237;28;20563;-72
2023/09/09 04:47:44;;;;;;;4.53;3.92;;;;;;;;;;5020833;28;20051;-72
2023/09/09 04:50:10;;;;;;;5.40;4.03;;;;;;;;;;5012561;28;20045;-73
2023/09/09 04:52:35;;;;;;;4.68;3.47;;;;;;;;;;4996218;28;20227;-72
2023/09/09 04:55:01;;;;;;;4.35;3.67;;;;;;;;;;5010499;28;20721;-72
2023/09/09 04:57:26;;;;;;;4.35;3.92;;;;;;;;;;5025873;28;20041;-72
2023/09/09 04:59:51;;;;;;;4.72;3.60;;;;;;;;;;5019716;28;20056;-72
2023/09/09 05:02:17;;;;;;;5.25;4.25;;;;;;;;;;5025456;28;20045;-72
2023/09/09 05:04:42;;;;;;;4.32;3.58;;;;;;;;;;5007592;28;20116;-72
2023/09/09 05:07:09;;;;;;;3.97;3.58;;;;;;;;;;5027528;28;20535;-73
2023/09/09 05:09:35;;;;;;;4.72;3.85;;;;;;;;;;5022314;28;20467;-71
2023/09/09 05:12:00;;;;;;;4.13;3.53;;;;;;;;;;5017237;28;20132;-73
2023/09/09 05:14:26;;;;;;;4.65;3.95;;;;;;;;;;5024207;28;20045;-70
2023/09/09 05:16:51;;;;;;;6.75;4.50;;;;;;;;;;5011583;28;20041;-71
2023/09/09 05:19:17;;;;;;;4.32;3.92;;;;;;;;;;5048288;28;20046;-71
2023/09/09 05:21:42;;;;;;;5.75;4.78;;;;;;;;;;5059837;28;20040;-71
2023/09/09 05:24:08;;;;;;;5.50;4.75;;;;;;;;;;5063907;28;20389;-71
2023/09/09 05:26:33;;;;;;;5.45;4.75;;;;;;;;;;5054989;28;20030;-72
2023/09/09 05:29:01;;;;;;;4.70;4.20;;;;;;;;;;5050573;28;20745;-72
2023/09/09 05:31:26;;;;;;;5.07;4.40;;;;;;;;;;5047839;28;20041;-72
2023/09/09 05:33:51;;;;;;;5.38;4.40;;;;;;;;;;5015790;28;20055;-72
2023/09/09 05:36:17;;;;;;;7.25;4.53;;;;;;;;;;5024938;28;20766;-71
2023/09/09 05:38:42;;;;;;;7.25;5.03;;;;;;;;;;5004666;28;20042;-72
2023/09/09 05:41:07;;;;;;;7.95;4.30;;;;;;;;;;5015788;28;20106;-71
2023/09/09 05:43:33;;;;;;;6.35;4.72;;;;;;;;;;5011064;28;20025;-71
2023/09/09 05:45:59;;;;;;;7.40;5.70;;;;;;;;;;5010156;28;20042;-71
2023/09/09 05:48:25;;;;;;;9.43;5.93;;;;;;;;;;5010124;28;20040;-71
2023/09/09 05:50:50;;;;;;;6.95;4.88;;;;;;;;;;4995855;28;20038;-71
2023/09/09 05:53:16;;;;;;;7.75;4.93;;;;;;;;;;5007790;28;20505;-71
2023/09/09 05:55:41;;;;;;;7.88;5.43;;;;;;;;;;4996453;28;20033;-71
2023/09/09 05:58:07;;;;;;;7.82;5.63;;;;;;;;;;5012598;28;20049;-71
2023/09/09 06:00:32;;;;;;;6.53;5.45;;;;;;;;;;5010218;28;20045;-71
2023/09/09 06:02:57;;;;;;;7.90;5.90;;;;;;;;;;5012564;28;20076;-71
2023/09/09 06:05:23;;;;;;;6.75;5.45;;;;;;;;;;5023667;28;20029;-73
2023/09/09 06:07:48;;;;;;;6.60;5.63;;;;;;;;;;5021251;28;20072;-72
2023/09/09 06:10:14;;;;;;;7.05;5.80;;;;;;;;;;5016954;28;20060;-71
2023/09/09 06:12:40;;;;;;;10.82;5.32;;;;;;;;;;5007829;28;20029;-71
2023/09/09 06:15:06;;;;;;;6.30;5.40;;;;;;;;;;5029854;28;20043;-71
2023/09/09 06:17:31;;;;;;;6.93;5.70;;;;;;;;;;4999112;28;20045;-71
2023/09/09 06:19:57;;;;;;;8.23;6.22;;;;;;;;;;5024603;28;20041;-71
2023/09/09 06:22:22;;;;;;;7.45;6.07;;;;;;;;;;5013384;28;20036;-72
2023/09/09 06:24:47;;;;;;;10.68;6.72;;;;;;;;;;5014406;28;20037;-71
2023/09/09 06:27:13;;;;;;;8.27;5.90;;;;;;;;;;5020638;28;20048;-72
2023/09/09 06:29:38;;;;;;;8.93;6.65;;;;;;;;;;5019034;28;20477;-71
2023/09/09 06:32:06;;;;;;;8.77;7.03;;;;;;;;;;5020437;28;20063;-72
2023/09/09 06:34:31;;;;;;;7.28;5.85;;;;;;;;;;5029183;28;20045;-71
2023/09/09 06:36:57;;;;;;;6.05;5.03;;;;;;;;;;5009360;28;20033;-71
2023/09/09 06:39:22;;;;;;;8.55;6.03;;;;;;;;;;5022743;28;20064;-71
2023/09/09 06:41:48;;;;;;;8.23;5.43;;;;;;;;;;5023797;28;20057;-71
2023/09/09 06:44:13;;;;;;;9.20;6.30;;;;;;;;;;5020810;28;20025;-71
2023/09/09 06:46:38;;;;;;;8.52;6.47;;;;;;;;;;5026894;28;20049;-72
2023/09/09 06:49:04;;;;;;;9.52;5.70;;;;;;;;;;5030156;28;20037;-71
2023/09/09 06:51:29;;;;;;;7.95;5.35;;;;;;;;;;5027540;28;20041;-72
2023/09/09 06:53:54;;;;;;;8.40;6.00;;;;;;;;;;5026734;28;20060;-71
2023/09/09 06:56:20;;;;;;;7.90;5.70;;;;;;;;;;5023055;28;20375;-71
2023/09/09 06:58:45;;;;;;;8.02;6.05;;;;;;;;;;5016169;28;20189;-71
2023/09/09 07:01:11;;;;;;;6.90;5.85;;;;;;;;;;5020753;28;20038;-71
2023/09/09 07:03:37;;;;;;;6.22;5.60;;;;;;;;;;5032286;28;20620;-71
2023/09/09 07:06:03;;;;;;;8.57;5.93;;;;;;;;;;5023026;28;20029;-71
2023/09/09 07:08:29;;;;;;;6.90;5.47;;;;;;;;;;5025524;28;20497;-71
2023/09/09 07:10:56;;;;;;;9.10;5.70;;;;;;;;;;5021852;28;20041;-71
2023/09/09 07:13:22;;;;;;;8.35;6.07;;;;;;;;;;4995646;28;20214;-72
2023/09/09 07:15:51;;;;;;;7.38;5.50;;;;;;;;;;5019840;28;20030;-71
2023/09/09 07:18:16;;;;;;;9.70;6.05;;;;;;;;;;5015739;28;20084;-71
2023/09/09 07:20:42;;;;;;;6.63;5.93;;;;;;;;;;5023176;28;20037;-71
2023/09/09 07:23:07;;;;;;;6.57;5.35;;;;;;;;;;5033016;28;20045;-71
2023/09/09 07:25:33;;;;;;;7.65;5.63;;;;;;;;;;5014085;28;20037;-71
2023/09/09 07:27:59;;;;;;;6.13;5.45;;;;;;;;;;5012863;28;20044;-72
2023/09/09 07:30:24;;;;;;;6.68;5.10;;;;;;;;;;5016986;28;20052;-71
2023/09/09 07:32:50;;;;;;;6.22;5.47;;;;;;;;;;5024136;28;20041;-72
2023/09/09 07:35:15;;;;;;;6.90;5.53;;;;;;;;;;5021364;28;20041;-71
2023/09/09 07:37:40;;;;;;;5.85;5.25;;;;;;;;;;5019038;28;20468;-71
2023/09/09 07:40:06;;;;;;;6.55;5.85;;;;;;;;;;5014567;28;20140;-72
2023/09/09 07:42:32;;;;;;;8.77;5.47;;;;;;;;;;5014666;28;20035;-72
2023/09/09 07:44:57;;;;;;;6.35;4.95;;;;;;;;;;5018956;28;20418;-72
2023/09/09 07:47:23;;;;;;;9.15;5.93;;;;;;;;;;5013843;28;20045;-71
2023/09/09 07:49:49;;;;;;;8.27;5.35;;;;;;;;;;5011416;28;20044;-72
2023/09/09 07:52:15;;;;;;;7.47;5.45;;;;;;;;;;5046327;28;20097;-72
2023/09/09 07:54:40;;;;;;;7.97;5.10;;;;;;;;;;5043369;28;20058;-72
2023/09/09 07:57:06;;;;;;;7.93;5.30;;;;;;;;;;5051527;28;20091;-72
2023/09/09 07:59:32;;;;;;;9.57;5.90;;;;;;;;;;5058447;28;20036;-71
2023/09/09 08:01:58;;;;;;;7.47;5.82;;;;;;;;;;5053492;28;20191;-71
2023/09/09 08:04:24;;;;;;;6.85;5.40;;;;;;;;;;5037602;28;20500;-71
2023/09/09 08:06:52;;;;;;;9.55;6.32;;;;;;;;;;5036462;28;20032;-72
2023/09/09 08:09:19;;;;;;;8.05;5.38;;;;;;;;;;5052149;28;20043;-72
2023/09/09 08:11:44;;;;;;;7.88;5.68;;;;;;;;;;5049626;28;20129;-72
2023/09/09 08:14:09;;;;;;;8.05;5.50;;;;;;;;;;5043404;28;20704;-72
2023/09/09 08:16:35;;;;;;;7.95;5.78;;;;;;;;;;5048189;28;20063;-72
2023/09/09 08:19:00;;;;;;;7.32;5.60;;;;;;;;;;5058824;28;20036;-72
2023/09/09 08:21:26;;;;;;;8.85;5.90;;;;;;;;;;5066890;28;20085;-72
2023/09/09 08:23:52;;;;;;;10.02;5.97;;;;;;;;;;5047280;28;20037;-72
2023/09/09 08:26:17;;;;;;;8.52;5.35;;;;;;;;;;5044882;28;20151;-72
2023/09/09 08:28:43;;;;;;;7.68;5.43;;;;;;;;;;5054429;28;20127;-72
2023/09/09 08:31:08;;;;;;;5.40;4.18;;;;;;;;;;5042169;28;20036;-72
2023/09/09 08:33:34;;;;;;;7.60;6.07;;;;;;;;;;5053374;28;20033;-72
2023/09/09 08:36:00;;;;;;;9.23;5.70;;;;;;;;;;5042675;28;20032;-72
2023/09/09 08:38:25;;;;;;;8.07;6.10;;;;;;;;;;5056470;28;20101;-72
2023/09/09 08:41:00;;;;;;;3.80;3.50;;;;;;;;;;5051050;28;20877;-72
2023/09/09 08:43:45;;;;;;;9.98;5.55;;;;;;;;;;5036517;28;20089;-72
2023/09/09 08:46:16;;;;;;;7.53;5.57;;;;;;;;;;5061346;28;20039;-72
2023/09/09 08:48:43;;;;;;;7.07;5.32;;;;;;;;;;5055381;28;20041;-72
2023/09/09 08:51:13;;;;;;;9.57;5.32;;;;;;;;;;5042773;28;20037;-72
2023/09/09 08:53:41;;;;;;;6.10;5.40;;;;;;;;;;5036041;28;20045;-72
2023/09/09 08:56:07;;;;;;;6.28;4.53;;;;;;;;;;5061221;28;20089;-72
2023/09/09 08:58:33;;;;;;;5.05;3.85;;;;;;;;;;5062879;28;20044;-72
2023/09/09 09:00:59;;;;;;;5.40;4.60;;;;;;;;;;5062840;28;20093;-72
2023/09/09 09:03:26;;;;;;;6.32;4.82;;;;;;;;;;5063141;28;20037;-72
2023/09/09 09:05:53;;;;;;;6.18;4.10;;;;;;;;;;5035429;28;20496;-72
2023/09/09 09:08:19;;;;;;;5.68;4.70;;;;;;;;;;5048055;28;20120;-72
2023/09/09 09:10:47;;;;;;;6.93;6.03;;;;;;;;;;5064368;28;20119;-72
2023/09/09 09:13:13;;;;;;;4.32;3.92;;;;;;;;;;5058051;28;20032;-72
2023/09/09 09:15:39;;;;;;;7.28;4.50;;;;;;;;;;5059322;28;20045;-72
2023/09/09 09:18:04;;;;;;;8.55;4.82;;;;;;;;;;5032820;28;20111;-72
2023/09/09 09:20:31;;;;;;;7.13;4.82;;;;;;;;;;5043448;28;20519;-72
2023/09/09 09:23:10;;;;;;;8.25;5.35;;;;;;;;;;5054314;28;20071;-72
2023/09/09 09:25:39;;;;;;;4.53;4.05;;;;;;;;;;5055013;28;20032;-72
2023/09/09 09:28:05;;;;;;;7.15;4.30;;;;;;;;;;5062961;28;20041;-72
2023/09/09 09:30:31;;;;;;;6.20;5.60;;;;;;;;;;5042676;28;20785;-72
2023/09/09 09:32:57;;;;;;;7.07;5.50;;;;;;;;;;5027305;28;20044;-72
2023/09/09 09:35:30;;;;;;;9.85;6.05;;;;;;;;;;5020328;28;20087;-72
2023/09/09 09:38:00;;;;;;;6.13;5.50;;;;;;;;;;5044655;28;20029;-72
2023/09/09 09:40:27;;;;;;;6.38;4.47;;;;;;;;;;5056291;28;20098;-72
2023/09/09 09:42:52;;;;;;;4.65;4.18;;;;;;;;;;5050370;28;20687;-72
2023/09/09 09:45:30;;;;;;;4.57;3.75;;;;;;;;;;5041909;28;20075;-72
2023/09/09 09:47:59;;;;;;;9.02;5.55;;;;;;;;;;5033732;28;20046;-72
2023/09/09 09:50:30;;;;;;;6.90;5.38;;;;;;;;;;5049964;28;20516;-73
2023/09/09 09:53:01;;;;;;;4.78;4.28;;;;;;;;;;5055876;28;20096;-73
2023/09/09 09:55:28;;;;;;;4.40;4.00;;;;;;;;;;5044336;28;20048;-73
2023/09/09 09:57:57;;;;;;;3.85;3.47;;;;;;;;;;5059461;28;20044;-73
2023/09/09 10:00:23;;;;;;;8.23;5.30;;;;;;;;;;5048483;28;20127;-73
2023/09/09 10:02:54;;;;;;;8.10;4.70;;;;;;;;;;5061689;28;20111;-73
2023/09/09 10:05:22;;;;;;;5.57;5.00;;;;;;;;;;5062830;28;20041;-73
2023/09/09 10:07:56;;;;;;;5.65;5.05;;;;;;;;;;5060698;28;20137;-73
2023/09/09 10:10:25;;;;;;;6.32;4.80;;;;;;;;;;5062528;28;20028;-74
2023/09/09 10:12:56;;;;;;;5.72;4.95;;;;;;;;;;5003303;28;20046;-74
2023/09/09 10:15:22;;;;;;;3.72;3.35;;;;;;;;;;5041390;28;20517;-73
2023/09/09 10:17:52;;;;;;;4.45;3.40;;;;;;;;;;5046910;28;20075;-74
2023/09/09 10:20:18;;;;;;;6.28;5.00;;;;;;;;;;5048948;28;20043;-73
2023/09/09 10:22:45;;;;;;;5.57;4.97;;;;;;;;;;5049849;28;20037;-73
2023/09/09 10:25:11;;;;;;;5.70;4.00;;;;;;;;;;5035215;28;20059;-73
2023/09/09 10:27:39;;;;;;;6.57;5.07;;;;;;;;;;5066592;28;20454;-75
2023/09/09 10:30:09;;;;;;;7.55;4.63;;;;;;;;;;5061310;28;20059;-73
2023/09/09 10:32:36;;;;;;;5.35;4.80;;;;;;;;;;5055812;28;20127;-74
2023/09/09 10:35:05;;;;;;;3.67;3.38;;;;;;;;;;5064834;28;20743;-73
2023/09/09 10:37:34;;;;;;;4.32;3.75;;;;;;;;;;5048312;28;20064;-74
2023/09/09 10:40:00;;;;;;;5.45;4.47;;;;;;;;;;5046783;28;20029;-73
2023/09/09 10:42:26;;;;;;;4.47;4.07;;;;;;;;;;5047921;28;20490;-73
2023/09/09 10:44:53;;;;;;;5.88;4.50;;;;;;;;;;5055914;28;20124;-73
2023/09/09 10:47:19;;;;;;;4.10;3.55;;;;;;;;;;5033818;28;20068;-73
2023/09/09 10:49:45;;;;;;;3.90;3.55;;;;;;;;;;5025830;28;20111;-73
2023/09/09 10:52:32;;;;;;;4.28;3.88;;;;;;;;;;5007283;28;20485;-73
2023/09/09 10:55:13;;;;;;;4.00;3.65;;;;;;;;;;5049529;28;20043;-73
2023/09/09 10:57:38;;;;;;;3.55;3.25;;;;;;;;;;5055339;28;20071;-73
2023/09/09 11:00:10;;;;;;;3.60;3.30;;;;;;;;;;5026283;28;20053;-73
2023/09/09 11:02:48;;;;;;;3.47;3.17;;;;;;;;;;5011130;28;20040;-74
2023/09/09 11:05:15;;;;;;;3.80;3.38;;;;;;;;;;5005108;28;20044;-74
2023/09/09 11:07:44;;;;;;;4.00;3.60;;;;;;;;;;5016867;28;20703;-74
2023/09/09 11:10:15;;;;;;;4.68;3.90;;;;;;;;;;5018857;28;20090;-74
2023/09/09 11:12:50;;;;;;;3.88;3.58;;;;;;;;;;5020068;28;20563;-74
2023/09/09 11:15:15;;;;;;;3.85;3.30;;;;;;;;;;5019661;28;20117;-74
2023/09/09 11:17:45;;;;;;;4.03;3.63;;;;;;;;;;5023988;28;20447;-74
2023/09/09 11:20:12;;;;;;;5.50;4.17;;;;;;;;;;5019419;28;20095;-74
2023/09/09 11:22:40;;;;;;;3.55;3.25;;;;;;;;;;5003289;28;20256;-74
2023/09/09 11:25:07;;;;;;;5.88;4.28;;;;;;;;;;5019180;28;20037;-74
2023/09/09 11:27:33;;;;;;;3.50;3.20;;;;;;;;;;5008356;28;20053;-74
2023/09/09 11:29:59;;;;;;;3.95;3.60;;;;;;;;;;5015616;28;20045;-74
2023/09/09 11:32:28;;;;;;;4.80;3.63;;;;;;;;;;5013384;28;20067;-75
2023/09/09 11:34:56;;;;;;;4.13;3.75;;;;;;;;;;5003260;28;20460;-74
2023/09/09 11:37:26;;;;;;;3.63;3.33;;;;;;;;;;4995833;28;20034;-75
2023/09/09 11:39:53;;;;;;;4.75;3.55;;;;;;;;;;5016902;28;20030;-76
2023/09/09 11:42:18;;;;;;;3.50;3.20;;;;;;;;;;5006332;28;20808;-76
2023/09/09 11:44:46;;;;;;;3.38;3.08;;;;;;;;;;5003177;28;20189;-76
2023/09/09 11:47:13;;;;;;;4.25;3.50;;;;;;;;;;5022183;28;20087;-76
2023/09/09 11:49:41;;;;;;;4.43;4.03;;;;;;;;;;5006350;28;20398;-76
2023/09/09 11:52:07;;;;;;;3.97;3.60;;;;;;;;;;5008239;28;20044;-75
2023/09/09 11:54:33;;;;;;;4.32;3.35;;;;;;;;;;5019692;28;20050;-76
2023/09/09 11:57:09;;;;;;;4.53;4.07;;;;;;;;;;5033031;28;20053;-75
2023/09/09 11:59:48;;;;;;;6.32;3.90;;;;;;;;;;5043524;28;20044;-76
2023/09/09 12:02:32;;;;;;;4.22;3.15;;;;;;;;;;5015007;28;20044;-76
2023/09/09 12:04:59;;;;;;;4.15;3.63;;;;;;;;;;5003168;28;20171;-76
2023/09/09 12:07:32;;;;;;;3.40;3.10;;;;;;;;;;5027555;28;20067;-76
2023/09/09 12:09:59;;;;;;;4.00;3.60;;;;;;;;;;5062219;28;20056;-76
2023/09/09 12:12:25;;;;;;;3.70;3.40;;;;;;;;;;5063665;28;20032;-75
2023/09/09 12:14:52;;;;;;;3.92;3.60;;;;;;;;;;5040737;28;20034;-76
2023/09/09 12:17:18;;;;;;;3.67;3.38;;;;;;;;;;5055950;28;20040;-76
2023/09/09 12:19:53;;;;;;;3.60;3.15;;;;;;;;;;5053129;28;20135;-76
2023/09/09 12:22:33;;;;;;;4.03;3.50;;;;;;;;;;5057908;28;20124;-76
2023/09/09 12:24:59;;;;;;;3.72;3.42;;;;;;;;;;5057248;28;20111;-76
2023/09/09 12:27:44;;;;;;;3.80;3.45;;;;;;;;;;5030568;28;20458;-76
2023/09/09 12:30:38;;;;;;;3.88;3.20;;;;;;;;;;5000475;28;20076;-76
2023/09/09 12:33:05;;;;;;;3.40;3.00;;;;;;;;;;5010042;28;20033;-76
2023/09/09 12:35:57;;;;;;;4.22;3.67;;;;;;;;;;5026090;28;20049;-76
2023/09/09 12:38:23;;;;;;;3.67;3.38;;;;;;;;;;4976162;28;20038;-76
2023/09/09 12:40:50;;;;;;;4.20;3.40;;;;;;;;;;5025379;28;20570;-76
2023/09/09 12:43:18;;;;;;;3.50;3.20;;;;;;;;;;5032838;28;20037;-76
2023/09/09 12:45:52;;;;;;;4.10;3.75;;;;;;;;;;5058883;28;20043;-76
2023/09/09 12:48:18;;;;;;;4.60;4.20;;;;;;;;;;5059202;28;20047;-76
2023/09/09 12:50:44;;;;;;;3.63;3.30;;;;;;;;;;5042466;28;20048;-76
2023/09/09 12:53:10;;;;;;;3.70;2.97;;;;;;;;;;5048155;28;20036;-76
2023/09/09 12:55:36;;;;;;;3.65;3.35;;;;;;;;;;5048485;28;20029;-76
2023/09/09 12:58:01;;;;;;;3.88;3.15;;;;;;;;;;5055765;28;20047;-76
2023/09/09 13:00:27;;;;;;;3.90;3.60;;;;;;;;;;5013654;28;20502;-76
2023/09/09 13:02:52;;;;;;;3.35;3.00;;;;;;;;;;5040819;28;20028;-76
2023/09/09 13:05:19;;;;;;;3.95;3.55;;;;;;;;;;5038087;28;20124;-76
2023/09/09 13:07:45;;;;;;;3.60;3.30;;;;;;;;;;5042491;28;20037;-76
2023/09/09 13:10:10;;;;;;;4.28;3.50;;;;;;;;;;5022089;28;20139;-76
2023/09/09 13:12:36;;;;;;;3.42;3.13;;;;;;;;;;5007215;28;20037;-76
2023/09/09 13:15:02;;;;;;;3.75;3.25;;;;;;;;;;5035640;28;20041;-76
2023/09/09 13:17:27;;;;;;;3.60;3.20;;;;;;;;;;5025784;28;20567;-76
2023/09/09 13:19:52;;;;;;;3.78;3.20;;;;;;;;;;5019779;28;20068;-76
2023/09/09 13:22:18;;;;;;;4.07;3.58;;;;;;;;;;5014725;28;20139;-76
2023/09/09 13:24:43;;;;;;;3.28;2.97;;;;;;;;;;4996681;28;20037;-76
2023/09/09 13:27:08;;;;;;;3.38;3.08;;;;;;;;;;5006651;28;20688;-76
2023/09/09 13:29:34;;;;;;;3.80;3.50;;;;;;;;;;5015401;28;20135;-76
2023/09/09 13:32:00;;;;;;;4.32;3.85;;;;;;;;;;5013918;28;20029;-76
2023/09/09 13:34:25;;;;;;;4.03;3.72;;;;;;;;;;4995879;28;20034;-76
2023/09/09 13:36:51;;;;;;;3.40;3.10;;;;;;;;;;4993546;28;20121;-76
2023/09/09 13:39:16;;;;;;;3.70;3.40;;;;;;;;;;5013223;28;20107;-76
2023/09/09 13:41:42;;;;;;;3.65;3.35;;;;;;;;;;5027219;28;20113;-76
2023/09/09 13:44:07;;;;;;;4.00;3.60;;;;;;;;;;5020585;28;20091;-76
2023/09/09 13:46:32;;;;;;;3.97;3.67;;;;;;;;;;5016121;28;20117;-76
2023/09/09 13:48:58;;;;;;;4.15;3.75;;;;;;;;;;5009172;28;20053;-76
2023/09/09 13:51:23;;;;;;;3.85;3.40;;;;;;;;;;5016679;28;20034;-76
2023/09/09 13:53:48;;;;;;;4.03;3.63;;;;;;;;;;5001523;28;20043;-76
2023/09/09 13:56:14;;;;;;;3.60;3.30;;;;;;;;;;5024375;28;20582;-76
2023/09/09 13:58:39;;;;;;;3.80;3.50;;;;;;;;;;5000302;28;20057;-76
2023/09/09 14:01:05;;;;;;;5.35;4.22;;;;;;;;;;5021375;28;20565;-76
2023/09/09 14:03:30;;;;;;;7.80;4.18;;;;;;;;;;5011159;28;20045;-76
2023/09/09 14:05:57;;;;;;;4.22;3.67;;;;;;;;;;5016767;28;20080;-76
2023/09/09 14:08:23;;;;;;;3.85;3.45;;;;;;;;;;5020479;28;20079;-76
2023/09/09 14:10:48;;;;;;;4.03;3.60;;;;;;;;;;4998443;28;20041;-76
2023/09/09 14:13:14;;;;;;;3.65;3.22;;;;;;;;;;5003579;28;20482;-76
2023/09/09 14:15:40;;;;;;;3.60;3.30;;;;;;;;;;5006339;28;20061;-76
2023/09/09 14:18:05;;;;;;;3.67;3.35;;;;;;;;;;4999597;28;20034;-76
2023/09/09 14:20:32;;;;;;;3.78;3.05;;;;;;;;;;5028917;28;20571;-76
2023/09/09 14:22:57;;;;;;;3.30;3.00;;;;;;;;;;5027751;28;20045;-76
2023/09/09 14:25:23;;;;;;;5.20;3.20;;;;;;;;;;5027258;28;20033;-76
2023/09/09 14:27:48;;;;;;;4.22;3.63;;;;;;;;;;5010398;28;20033;-76
2023/09/09 14:30:14;;;;;;;3.92;3.53;;;;;;;;;;5006156;28;20041;-76
2023/09/09 14:32:39;;;;;;;3.47;3.17;;;;;;;;;;4997542;28;20054;-76
2023/09/09 14:35:05;;;;;;;3.85;3.45;;;;;;;;;;5010665;28;20505;-76
2023/09/09 14:37:31;;;;;;;3.55;3.20;;;;;;;;;;5000901;28;20079;-76
2023/09/09 14:39:56;;;;;;;4.25;3.10;;;;;;;;;;5010162;28;20049;-76